Time;durP1;ratioP1;P1;durP2;ratioP2;P2;SDS_P1;SDS_P2;PMS_P1;PMS_P2;Temp;Humidity;BMP_temperature;BMP_pressure;BME280_temperature;BME280_humidity;BME280_pressure;Samples;Min_cycle;Max_cycle;Signal;HPM_P1;HPM_P2
2021/05/06 00:05:11;;;;;;;0.77;0.77;;;5.60;77.30;;;;;;5076238;28;20381;-74
2021/05/06 00:32:11;;;;;;;0.65;0.65;;;5.40;78.30;;;;;;5076189;28;20044;-75
2021/05/06 00:34:37;;;;;;;0.90;0.88;;;5.40;78.30;;;;;;5075794;28;20013;-74
2021/05/06 00:37:03;;;;;;;0.77;0.63;;;5.40;78.40;;;;;;5057159;28;20028;-76
2021/05/06 00:39:36;;;;;;;0.80;0.80;;;5.50;78.30;;;;;;5075586;28;20078;-75
2021/05/06 00:42:11;;;;;;;0.60;0.60;;;5.50;78.50;;;;;;5075361;28;20046;-75
2021/05/06 00:58:24;;;;;;;0.82;0.82;;;5.60;78.50;;;;;;5075666;28;20029;-74
2021/05/06 01:03:44;;;;;;;0.90;0.90;;;5.60;78.70;;;;;;5075524;28;20036;-73
2021/05/06 01:06:14;;;;;;;0.65;0.65;;;5.60;78.70;;;;;;5075290;28;20021;-74
2021/05/06 01:08:44;;;;;;;0.80;0.80;;;5.50;79.10;;;;;;5075274;28;20118;-74
2021/05/06 01:11:19;;;;;;;0.90;0.90;;;5.50;79.20;;;;;;5075022;28;20051;-75
2021/05/06 01:13:47;;;;;;;1.10;1.00;;;5.50;79.40;;;;;;5075111;28;20031;-75
2021/05/06 01:16:12;;;;;;;1.13;1.02;;;5.50;79.50;;;;;;5074868;28;20062;-74
2021/05/06 01:18:38;;;;;;;1.02;1.00;;;5.40;79.60;;;;;;5074803;28;20407;-73
2021/05/06 01:21:05;;;;;;;0.90;0.90;;;5.50;79.80;;;;;;5074397;28;20132;-74
2021/05/06 01:23:33;;;;;;;0.75;0.75;;;5.40;79.60;;;;;;5074850;28;20055;-75
2021/05/06 01:26:06;;;;;;;0.68;0.68;;;5.40;79.80;;;;;;5074643;28;20545;-74
2021/05/06 01:28:36;;;;;;;0.73;0.73;;;5.40;79.90;;;;;;5074707;28;20056;-75
2021/05/06 01:31:21;;;;;;;1.15;1.00;;;5.40;79.90;;;;;;5074735;28;20027;-75
2021/05/06 01:33:52;;;;;;;1.17;0.90;;;5.40;80.00;;;;;;5074661;28;20096;-75
2021/05/06 01:36:22;;;;;;;1.20;1.10;;;5.40;80.00;;;;;;5074150;28;20054;-75
2021/05/06 01:46:53;;;;;;;1.38;1.27;;;5.30;80.30;;;;;;5074515;28;20071;-74
2021/05/06 01:49:33;;;;;;;1.38;1.27;;;5.30;80.40;;;;;;5073848;28;20016;-74
2021/05/06 02:00:12;;;;;;;0.88;0.88;;;5.30;80.70;;;;;;5074279;28;20130;-74
2021/05/06 02:02:39;;;;;;;1.38;1.10;;;5.20;80.80;;;;;;5074021;28;20119;-74
2021/05/06 02:05:05;;;;;;;1.10;0.98;;;5.20;80.90;;;;;;5073569;28;20074;-74
2021/05/06 02:07:31;;;;;;;2.13;1.60;;;5.20;81.00;;;;;;5073876;28;20122;-75
2021/05/06 02:09:57;;;;;;;1.50;1.20;;;5.20;81.00;;;;;;5073980;28;20100;-75
2021/05/06 02:12:23;;;;;;;1.85;1.75;;;5.30;81.20;;;;;;5073707;28;20558;-76
2021/05/06 02:14:55;;;;;;;1.35;1.20;;;5.20;81.20;;;;;;5072926;28;20091;-75
2021/05/06 02:17:21;;;;;;;1.20;1.10;;;5.30;81.30;;;;;;5073580;28;20029;-75
2021/05/06 02:19:49;;;;;;;1.40;1.27;;;5.30;81.90;;;;;;5072900;28;20048;-74
2021/05/06 02:22:16;;;;;;;1.70;1.55;;;5.30;81.30;;;;;;5073432;28;20193;-74
2021/05/06 02:24:43;;;;;;;1.17;1.08;;;5.30;81.40;;;;;;5073417;28;20155;-75
2021/05/06 02:27:09;;;;;;;1.65;1.23;;;5.30;81.40;;;;;;5073526;28;20074;-75
2021/05/06 02:29:35;;;;;;;1.90;1.13;;;5.20;81.40;;;;;;5073455;28;20096;-75
2021/05/06 02:32:01;;;;;;;1.10;1.00;;;5.20;81.60;;;;;;5073380;28;20048;-73
2021/05/06 02:34:26;;;;;;;1.30;1.08;;;5.20;81.80;;;;;;5073072;28;20468;-74
2021/05/06 02:36:52;;;;;;;1.10;1.00;;;5.20;81.80;;;;;;5073498;28;20490;-75
2021/05/06 02:39:17;;;;;;;1.98;1.88;;;5.20;82.00;;;;;;5073373;28;20055;-75
2021/05/06 02:41:43;;;;;;;1.13;1.08;;;5.20;81.80;;;;;;5073242;28;20033;-75
2021/05/06 02:44:09;;;;;;;1.27;1.20;;;5.20;81.80;;;;;;5073394;28;20063;-75
2021/05/06 02:46:34;;;;;;;1.35;1.25;;;5.20;81.80;;;;;;5073519;28;20025;-74
2021/05/06 02:49:00;;;;;;;1.67;1.42;;;5.20;81.80;;;;;;5073052;28;20025;-74
2021/05/06 02:51:31;;;;;;;1.88;1.45;;;5.20;81.80;;;;;;5073190;28;20021;-75
2021/05/06 02:53:57;;;;;;;1.45;1.35;;;5.20;81.90;;;;;;5073317;28;20036;-74
2021/05/06 03:04:25;;;;;;;0.90;0.90;;;5.20;82.60;;;;;;5073371;28;20086;-74
2021/05/06 03:07:07;;;;;;;1.83;1.50;;;5.20;82.00;;;;;;5073136;28;20025;-75
2021/05/06 03:22:58;;;;;;;1.30;1.15;;;5.00;82.50;;;;;;5073110;28;20106;-74
2021/05/06 03:25:24;;;;;;;1.27;1.00;;;5.00;82.50;;;;;;5072824;28;20024;-75
2021/05/06 03:27:54;;;;;;;2.05;1.20;;;4.90;82.40;;;;;;5072870;28;20440;-75
2021/05/06 04:14:24;;;;;;;1.55;1.40;;;4.60;83.00;;;;;;5014340;28;20096;-74
2021/05/06 04:21:29;;;;;;;2.00;1.70;;;4.60;83.10;;;;;;5076185;28;20033;-75
2021/05/06 04:22:01;;;;;;;1.83;1.60;;;4.60;83.10;;;;;;5072660;28;20067;-74
2021/05/06 04:27:16;;;;;;;1.45;1.30;;;4.60;83.20;;;;;;5076054;28;20043;-74
2021/05/06 04:37:51;;;;;;;1.50;1.40;;;4.90;82.80;;;;;;4974571;28;20110;-74
2021/05/06 04:54:58;;;;;;;1.48;1.38;;;5.10;82.90;;;;;;4974543;28;20114;-74
2021/05/06 05:04:30;;;;;;;3.03;1.88;;;5.30;83.00;;;;;;4974685;28;20033;-74
2021/05/06 05:09:47;;;;;;;1.90;1.67;;;5.30;82.80;;;;;;4974116;28;20031;-74
2021/05/06 05:17:39;;;;;;;3.13;1.98;;;5.50;83.30;;;;;;5046403;28;20032;-74
2021/05/06 05:20:42;;;;;;;1.73;1.55;;;5.50;82.80;;;;;;5053935;28;20500;-75
2021/05/06 05:23:27;;;;;;;2.58;1.80;;;5.50;82.90;;;;;;5053547;28;20377;-75
2021/05/06 05:26:01;;;;;;;1.90;1.67;;;5.60;82.90;;;;;;5067447;28;20028;-74
2021/05/06 05:28:26;;;;;;;1.88;1.60;;;5.60;83.00;;;;;;5074120;28;20029;-75
2021/05/06 05:30:52;;;;;;;3.00;1.88;;;5.70;83.00;;;;;;5056626;28;20032;-74
2021/05/06 05:33:21;;;;;;;2.75;1.85;;;5.70;82.80;;;;;;5074701;28;20095;-75
2021/05/06 05:36:01;;;;;;;2.28;1.80;;;5.70;82.90;;;;;;5074469;28;20024;-75
2021/05/06 05:56:54;;;;;;;5.00;2.72;;;6.20;82.40;;;;;;4953441;29;20556;-73
2021/05/06 05:59:19;;;;;;;3.72;2.30;;;6.20;82.60;;;;;;4953871;29;20043;-73
2021/05/06 06:01:45;;;;;;;2.63;1.83;;;6.20;82.70;;;;;;4953809;29;20035;-74
2021/05/06 06:04:10;;;;;;;2.92;2.33;;;6.30;82.80;;;;;;4948248;28;20037;-73
2021/05/06 06:06:36;;;;;;;3.08;2.42;;;6.40;82.70;;;;;;4953405;28;20484;-75
2021/05/06 06:09:03;;;;;;;3.33;2.30;;;6.50;82.50;;;;;;4953780;29;20108;-75
2021/05/06 06:11:31;;;;;;;3.60;2.85;;;6.60;82.50;;;;;;4962072;28;20046;-74
2021/05/06 06:13:57;;;;;;;2.63;2.33;;;6.70;82.50;;;;;;4972731;28;20117;-75
2021/05/06 06:16:24;;;;;;;3.95;2.80;;;6.70;82.40;;;;;;4972868;28;20114;-75
2021/05/06 06:18:54;;;;;;;3.20;2.40;;;6.60;82.60;;;;;;4972874;28;20034;-74
2021/05/06 06:21:30;;;;;;;5.30;3.25;;;6.60;82.80;;;;;;4959345;28;20132;-74
2021/05/06 06:23:56;;;;;;;4.07;2.78;;;6.50;82.90;;;;;;4950595;29;20059;-74
2021/05/06 06:26:22;;;;;;;4.03;3.08;;;6.60;83.10;;;;;;4950048;29;20131;-74
2021/05/06 06:28:50;;;;;;;4.00;2.88;;;6.60;83.00;;;;;;4950411;28;20031;-74
2021/05/06 06:31:33;;;;;;;3.33;2.70;;;6.70;82.80;;;;;;5030335;28;20044;-74
2021/05/06 06:33:59;;;;;;;4.32;3.03;;;6.80;82.90;;;;;;5070315;28;20035;-73
2021/05/06 06:36:25;;;;;;;4.25;3.17;;;6.70;83.00;;;;;;5070390;28;20020;-74
2021/05/06 06:38:50;;;;;;;3.67;2.72;;;6.80;83.10;;;;;;5070068;28;20078;-74
2021/05/06 06:41:17;;;;;;;4.55;3.00;;;6.80;83.00;;;;;;5070396;28;20546;-74
2021/05/06 06:43:49;;;;;;;4.60;3.05;;;7.00;83.00;;;;;;5070565;28;20064;-74
2021/05/06 06:46:16;;;;;;;3.65;2.58;;;7.00;82.80;;;;;;5070016;28;20499;-73
2021/05/06 06:48:44;;;;;;;3.97;2.40;;;7.10;82.90;;;;;;5070605;28;20103;-73
2021/05/06 06:51:10;;;;;;;4.25;2.90;;;7.20;82.90;;;;;;5070362;28;20496;-73
2021/05/06 06:53:35;;;;;;;3.97;3.10;;;7.30;82.80;;;;;;5067889;28;20025;-73
2021/05/06 06:56:01;;;;;;;3.35;2.97;;;7.40;82.60;;;;;;5067345;28;20028;-73
2021/05/06 06:58:26;;;;;;;2.97;2.35;;;7.50;82.60;;;;;;5071674;28;20017;-75
2021/05/06 07:00:52;;;;;;;4.07;3.00;;;7.50;82.40;;;;;;5071699;28;20044;-75
2021/05/06 07:03:17;;;;;;;3.88;2.75;;;7.60;82.50;;;;;;5072648;28;20035;-73
2021/05/06 07:05:43;;;;;;;3.17;2.40;;;7.60;82.30;;;;;;5073061;28;20027;-74
2021/05/06 07:08:19;;;;;;;3.80;2.42;;;7.70;82.40;;;;;;5072380;28;20112;-73
2021/05/06 07:10:47;;;;;;;3.30;2.30;;;7.70;82.20;;;;;;5072914;28;20078;-74
2021/05/06 07:13:14;;;;;;;4.13;2.78;;;7.70;82.30;;;;;;5072806;28;20362;-74
2021/05/06 07:15:40;;;;;;;3.28;2.75;;;7.80;82.40;;;;;;5072289;28;20402;-74
2021/05/06 07:18:09;;;;;;;3.92;2.63;;;7.90;82.40;;;;;;5072555;28;20035;-73
2021/05/06 07:20:36;;;;;;;2.75;2.30;;;7.90;82.40;;;;;;5072526;28;20024;-73
2021/05/06 07:23:02;;;;;;;3.67;2.63;;;7.90;82.60;;;;;;5072345;28;20017;-74
2021/05/06 07:25:27;;;;;;;3.53;2.42;;;8.10;82.40;;;;;;5126409;22;20056;-73
2021/05/06 07:27:53;;;;;;;4.40;2.28;;;8.10;82.10;;;;;;5063448;28;20522;-74
2021/05/06 07:30:19;;;;;;;4.25;2.60;;;8.20;82.30;;;;;;5052468;28;20029;-74
2021/05/06 07:32:45;;;;;;;3.03;2.13;;;8.30;82.20;;;;;;5052795;28;20070;-75
2021/05/06 07:35:12;;;;;;;3.63;2.90;;;8.40;81.90;;;;;;5052837;28;20021;-72
2021/05/06 07:37:38;;;;;;;2.85;2.10;;;8.40;82.10;;;;;;5050945;28;20033;-75
2021/05/06 07:40:05;;;;;;;3.40;2.47;;;8.40;82.10;;;;;;5053706;28;20449;-76
2021/05/06 07:42:30;;;;;;;2.85;2.20;;;8.40;82.30;;;;;;5056879;28;20098;-74
2021/05/06 07:44:56;;;;;;;3.30;2.75;;;8.50;82.40;;;;;;5047388;28;20013;-76
2021/05/06 07:47:21;;;;;;;4.30;3.05;;;8.70;82.10;;;;;;5056684;28;20060;-76
2021/05/06 07:49:49;;;;;;;3.70;2.72;;;8.80;81.80;;;;;;5056423;28;20021;-76
2021/05/06 07:52:19;;;;;;;3.92;2.80;;;8.90;81.80;;;;;;5056000;28;20020;-73
2021/05/06 07:54:46;;;;;;;3.75;2.65;;;9.00;81.60;;;;;;5056466;28;20392;-76
2021/05/06 07:57:12;;;;;;;3.85;2.63;;;9.00;81.70;;;;;;5056328;28;20542;-74
2021/05/06 07:59:38;;;;;;;3.58;2.53;;;9.00;81.70;;;;;;5038407;28;20392;-73
2021/05/06 08:02:05;;;;;;;3.83;2.65;;;9.00;81.80;;;;;;5038421;28;20054;-74
2021/05/06 08:04:31;;;;;;;3.90;2.72;;;9.00;81.90;;;;;;5056205;28;20032;-74
2021/05/06 08:06:56;;;;;;;3.42;2.33;;;9.00;81.80;;;;;;5055738;28;20054;-75
2021/05/06 08:09:22;;;;;;;3.15;2.50;;;9.00;81.90;;;;;;5056378;28;20060;-74
2021/05/06 08:11:50;;;;;;;2.92;2.22;;;9.10;81.70;;;;;;5056075;28;20108;-75
2021/05/06 08:14:16;;;;;;;2.47;1.75;;;9.20;81.70;;;;;;5056227;28;20100;-74
2021/05/06 08:16:41;;;;;;;3.40;2.60;;;9.30;81.30;;;;;;5055927;28;20056;-77
2021/05/06 08:19:07;;;;;;;2.38;1.83;;;9.30;81.20;;;;;;5055985;28;20060;-75
2021/05/06 08:21:32;;;;;;;3.42;2.25;;;9.30;81.10;;;;;;5055565;28;20083;-74
2021/05/06 08:23:58;;;;;;;3.53;2.13;;;9.20;81.20;;;;;;5055940;28;20025;-77
2021/05/06 08:26:27;;;;;;;3.83;1.90;;;9.20;81.50;;;;;;5055739;28;20176;-75
2021/05/06 08:28:53;;;;;;;3.27;1.83;;;9.10;81.60;;;;;;5055812;28;20388;-75
2021/05/06 08:31:20;;;;;;;2.65;1.77;;;9.10;81.90;;;;;;5055825;28;20271;-75
2021/05/06 08:33:46;;;;;;;2.55;2.10;;;9.20;81.80;;;;;;5055728;28;20481;-77
2021/05/06 08:36:14;;;;;;;2.78;2.22;;;9.40;81.50;;;;;;5044727;28;20104;-76
2021/05/06 08:38:40;;;;;;;2.47;2.03;;;9.50;81.10;;;;;;5043347;28;20092;-76
2021/05/06 08:41:06;;;;;;;2.45;2.10;;;9.60;81.10;;;;;;5020546;28;20053;-74
2021/05/06 08:43:35;;;;;;;3.63;2.55;;;9.80;80.90;;;;;;5037582;28;20017;-76
2021/05/06 08:46:02;;;;;;;2.28;1.80;;;10.00;80.60;;;;;;5048258;28;20111;-75
2021/05/06 08:48:30;;;;;;;2.30;2.10;;;10.00;80.60;;;;;;5035501;28;20053;-75
2021/05/06 08:50:55;;;;;;;2.53;1.88;;;10.30;80.40;;;;;;5054628;28;20074;-75
2021/05/06 08:53:22;;;;;;;3.72;2.53;;;10.40;80.00;;;;;;5055270;28;20028;-75
2021/05/06 08:55:48;;;;;;;2.33;2.13;;;10.50;79.80;;;;;;5054324;28;20047;-76
2021/05/06 08:58:14;;;;;;;2.78;2.13;;;10.50;79.90;;;;;;5052865;28;20029;-75
2021/05/06 09:00:40;;;;;;;1.85;1.67;;;10.60;80.10;;;;;;5054527;28;20083;-76
2021/05/06 09:03:06;;;;;;;2.97;2.42;;;10.50;80.10;;;;;;5055060;28;20469;-75
2021/05/06 09:05:35;;;;;;;3.53;2.53;;;10.40;80.20;;;;;;5050426;28;20021;-76
2021/05/06 09:08:01;;;;;;;2.85;2.13;;;10.30;80.30;;;;;;5052485;28;20060;-76
2021/05/06 09:10:33;;;;;;;2.38;2.05;;;10.30;80.50;;;;;;5052344;28;20473;-76
2021/05/06 09:12:59;;;;;;;2.55;2.08;;;10.20;80.40;;;;;;5052089;28;20382;-76
2021/05/06 09:15:25;;;;;;;3.45;2.40;;;10.10;80.80;;;;;;5052061;28;20075;-74
2021/05/06 09:17:52;;;;;;;2.55;2.10;;;10.20;81.00;;;;;;5034074;28;20028;-74
2021/05/06 09:20:20;;;;;;;3.15;2.20;;;10.40;80.30;;;;;;5049953;28;20383;-75
2021/05/06 09:22:50;;;;;;;3.05;2.60;;;10.60;79.90;;;;;;5047647;28;20499;-75
2021/05/06 09:25:33;;;;;;;3.95;2.58;;;10.60;79.80;;;;;;5055261;28;20037;-77
2021/05/06 09:28:04;;;;;;;3.30;2.75;;;10.60;79.80;;;;;;5063550;28;20063;-75
2021/05/06 09:30:35;;;;;;;3.03;2.47;;;10.60;80.00;;;;;;5054505;28;20025;-75
2021/05/06 09:33:10;;;;;;;2.75;2.03;;;10.60;79.90;;;;;;5054356;28;20057;-76
2021/05/06 09:35:47;;;;;;;3.15;2.70;;;10.70;79.90;;;;;;5054799;28;20025;-75
2021/05/06 09:38:26;;;;;;;4.30;2.80;;;10.90;79.40;;;;;;5054504;28;20480;-75
2021/05/06 09:40:52;;;;;;;4.28;2.78;;;10.90;79.10;;;;;;5054646;28;20028;-75
2021/05/06 09:43:23;;;;;;;3.00;2.50;;;10.80;79.20;;;;;;5036705;28;20025;-76
2021/05/06 09:45:48;;;;;;;2.95;2.35;;;10.70;79.30;;;;;;5060864;28;20017;-76
2021/05/06 09:48:16;;;;;;;3.35;2.63;;;10.70;79.50;;;;;;5056025;28;20507;-75
2021/05/06 09:50:47;;;;;;;3.40;2.65;;;10.80;79.50;;;;;;5074315;28;20047;-75
2021/05/06 09:53:21;;;;;;;3.72;2.60;;;10.90;79.40;;;;;;5074393;28;20104;-75
2021/05/06 09:55:48;;;;;;;3.15;2.40;;;11.00;79.20;;;;;;5074277;28;20017;-76
2021/05/06 09:58:15;;;;;;;3.63;2.20;;;11.10;79.00;;;;;;5074001;28;20051;-75
2021/05/06 10:00:42;;;;;;;2.33;2.13;;;11.30;78.60;;;;;;5073951;28;20104;-75
2021/05/06 10:03:17;;;;;;;3.92;2.75;;;11.40;78.50;;;;;;5067425;28;20032;-75
2021/05/06 10:05:44;;;;;;;3.83;2.85;;;11.40;78.40;;;;;;5044390;28;20119;-76
2021/05/06 10:08:11;;;;;;;2.58;2.00;;;11.30;78.30;;;;;;5053890;28;20028;-76
2021/05/06 10:10:38;;;;;;;2.92;2.38;;;11.40;78.40;;;;;;5053787;28;20029;-77
2021/05/06 10:13:05;;;;;;;3.80;3.05;;;11.40;78.20;;;;;;5053980;28;20025;-77
2021/05/06 10:15:31;;;;;;;5.30;3.40;;;11.40;78.00;;;;;;5053779;28;20100;-77
2021/05/06 10:17:57;;;;;;;3.65;2.67;;;11.20;78.20;;;;;;5053270;28;20061;-76
2021/05/06 10:20:25;;;;;;;3.28;2.55;;;11.20;78.60;;;;;;5053909;28;20021;-75
2021/05/06 10:22:52;;;;;;;2.67;2.28;;;11.30;78.70;;;;;;5053423;28;20040;-76
2021/05/06 10:25:20;;;;;;;3.75;2.97;;;11.60;78.50;;;;;;5053753;28;20499;-75
2021/05/06 10:27:46;;;;;;;5.57;3.90;;;11.90;77.50;;;;;;5055831;28;20083;-78
2021/05/06 10:30:13;;;;;;;3.90;2.80;;;11.90;77.20;;;;;;5055677;28;20485;-77
2021/05/06 10:32:40;;;;;;;3.78;2.90;;;11.90;77.60;;;;;;5054840;28;20021;-75
2021/05/06 10:35:08;;;;;;;3.08;2.50;;;12.00;77.70;;;;;;5037818;28;20021;-79
2021/05/06 10:37:37;;;;;;;3.97;3.05;;;12.20;77.40;;;;;;5053980;28;20033;-75
2021/05/06 10:40:23;;;;;;;2.85;2.38;;;12.20;77.20;;;;;;5053758;28;20033;-76
2021/05/06 10:42:50;;;;;;;3.10;2.45;;;12.30;77.30;;;;;;5053533;28;20469;-76
2021/05/06 10:45:16;;;;;;;3.20;2.58;;;12.50;77.30;;;;;;5039197;28;20013;-76
2021/05/06 10:47:46;;;;;;;3.17;2.58;;;12.70;76.70;;;;;;5052904;28;20021;-79
2021/05/06 10:50:22;;;;;;;3.13;2.17;;;12.50;76.80;;;;;;5053246;28;20151;-74
2021/05/06 10:52:50;;;;;;;3.88;2.70;;;12.20;77.10;;;;;;5053333;28;20025;-74
2021/05/06 10:55:54;;;;;;;2.55;2.35;;;12.10;77.60;;;;;;5053360;28;20031;-73
2021/05/06 10:58:32;;;;;;;3.58;2.50;;;12.20;77.60;;;;;;5011585;28;20058;-73
2021/05/06 11:01:04;;;;;;;4.00;2.55;;;12.30;77.50;;;;;;4994465;28;20026;-76
2021/05/06 11:03:32;;;;;;;3.40;2.50;;;12.40;77.00;;;;;;5012403;28;20077;-76
2021/05/06 11:05:59;;;;;;;3.65;2.47;;;12.40;77.00;;;;;;5022316;28;20029;-77
2021/05/06 11:08:30;;;;;;;3.83;3.20;;;12.40;76.70;;;;;;5011528;28;20021;-76
2021/05/06 11:10:56;;;;;;;4.93;2.97;;;12.40;76.70;;;;;;5024916;28;20045;-75
2021/05/06 11:13:23;;;;;;;4.35;3.33;;;12.50;76.30;;;;;;5030969;28;20521;-75
2021/05/06 11:15:50;;;;;;;5.35;3.20;;;12.40;76.20;;;;;;5032974;28;20033;-75
2021/05/06 11:18:43;;;;;;;5.30;3.55;;;12.20;76.40;;;;;;5035275;28;20022;-72
2021/05/06 11:21:09;;;;;;;3.90;2.80;;;12.00;76.50;;;;;;5035227;28;20064;-74
2021/05/06 11:23:36;;;;;;;3.20;2.42;;;11.90;76.60;;;;;;5000904;28;20049;-74
2021/05/06 11:26:07;;;;;;;5.40;3.25;;;11.90;76.40;;;;;;5015241;28;20125;-74
2021/05/06 11:28:32;;;;;;;3.60;2.78;;;11.90;76.20;;;;;;5021235;28;20049;-74
2021/05/06 11:30:59;;;;;;;4.57;3.10;;;12.00;76.20;;;;;;5036388;28;20029;-74
2021/05/06 11:33:28;;;;;;;3.10;2.45;;;12.40;75.80;;;;;;5019289;28;20017;-74
2021/05/06 11:36:11;;;;;;;3.38;2.15;;;12.70;75.00;;;;;;5037228;28;20029;-77
2021/05/06 11:38:37;;;;;;;3.45;2.45;;;13.00;74.40;;;;;;5035999;28;20018;-79
2021/05/06 11:41:09;;;;;;;2.95;2.20;;;13.10;74.30;;;;;;5037232;28;20109;-82
2021/05/06 11:43:48;;;;;;;1.73;1.63;;;13.60;73.80;;;;;;5036812;28;20030;-78
2021/05/06 11:46:30;;;;;;;2.40;2.00;;;14.20;72.90;;;;;;5037020;28;20030;-78
2021/05/06 11:49:04;;;;;;;2.17;1.98;;;14.70;71.90;;;;;;5048364;28;20021;-74
2021/05/06 11:51:35;;;;;;;3.25;2.42;;;15.10;71.70;;;;;;5076629;28;20380;-73
2021/05/06 11:54:06;;;;;;;1.50;1.40;;;15.40;70.90;;;;;;5076790;28;20041;-75
2021/05/06 11:56:33;;;;;;;2.35;2.05;;;15.60;70.50;;;;;;5076538;28;20033;-74
2021/05/06 11:58:59;;;;;;;2.30;2.10;;;15.80;70.40;;;;;;5075865;28;20384;-74
2021/05/06 12:01:26;;;;;;;2.00;1.77;;;16.00;70.30;;;;;;5076329;28;20027;-74
2021/05/06 12:03:53;;;;;;;2.65;2.17;;;16.30;69.80;;;;;;5076309;28;20042;-75
2021/05/06 12:06:35;;;;;;;2.58;2.38;;;16.50;69.40;;;;;;5076354;28;20051;-75
2021/05/06 12:09:03;;;;;;;5.13;2.20;;;16.80;68.80;;;;;;5064859;28;20075;-71
2021/05/06 12:11:39;;;;;;;2.90;2.58;;;17.00;68.80;;;;;;5055983;28;20071;-75
2021/05/06 12:14:09;;;;;;;3.25;2.47;;;17.00;68.20;;;;;;5055807;28;20035;-74
2021/05/06 12:16:36;;;;;;;3.08;2.58;;;17.10;68.30;;;;;;5055934;28;20021;-76
2021/05/06 12:19:07;;;;;;;3.38;2.80;;;17.10;68.20;;;;;;5056056;28;20412;-74
2021/05/06 12:21:44;;;;;;;2.50;2.10;;;16.90;68.20;;;;;;5056115;28;20619;-74
2021/05/06 12:24:12;;;;;;;2.28;2.08;;;16.60;69.10;;;;;;5046862;28;20116;-76
2021/05/06 12:26:40;;;;;;;3.92;2.75;;;16.50;69.20;;;;;;5046050;28;20067;-76
2021/05/06 12:29:06;;;;;;;2.83;2.58;;;15.70;69.70;;;;;;5023077;28;20021;-74
2021/05/06 12:31:45;;;;;;;3.65;2.97;;;14.60;71.00;;;;;;5055688;28;20477;-73
2021/05/06 12:34:15;;;;;;;4.73;3.27;;;13.40;72.70;;;;;;5029176;28;20021;-72
2021/05/06 12:36:51;;;;;;;4.32;3.35;;;12.30;73.60;;;;;;5035473;28;20499;-73
2021/05/06 12:39:18;;;;;;;3.90;2.90;;;11.40;75.40;;;;;;5038370;28;20025;-74
2021/05/06 12:41:59;;;;;;;3.65;2.83;;;10.70;76.20;;;;;;5053047;28;20082;-74
2021/05/06 12:44:43;;;;;;;4.82;3.72;;;10.30;76.70;;;;;;5055561;28;20021;-72
2021/05/06 12:47:31;;;;;;;4.28;3.80;;;10.00;76.40;;;;;;5055368;28;20028;-74
2021/05/06 12:50:14;;;;;;;3.65;2.88;;;9.70;76.60;;;;;;5055437;28;20055;-74
2021/05/06 12:52:44;;;;;;;3.92;3.20;;;9.50;76.90;;;;;;5055412;28;20025;-74
2021/05/06 12:55:20;;;;;;;4.07;2.90;;;9.40;76.70;;;;;;5055421;28;20099;-74
2021/05/06 12:58:02;;;;;;;2.92;2.50;;;9.50;76.20;;;;;;5054772;28;20441;-73
2021/05/06 13:00:28;;;;;;;4.68;2.88;;;9.50;76.00;;;;;;5055240;28;20032;-72
2021/05/06 13:03:05;;;;;;;2.47;2.28;;;9.50;75.80;;;;;;5055114;28;20020;-77
2021/05/06 13:05:33;;;;;;;3.65;3.17;;;9.60;75.60;;;;;;5054257;28;20025;-73
2021/05/06 13:07:59;;;;;;;3.22;2.53;;;9.80;75.30;;;;;;5043099;28;20028;-75
2021/05/06 13:10:32;;;;;;;2.60;2.13;;;9.90;75.10;;;;;;5035809;28;20033;-75
2021/05/06 13:13:00;;;;;;;3.40;2.95;;;10.20;74.70;;;;;;5035577;28;20013;-74
2021/05/06 13:15:25;;;;;;;3.63;2.72;;;10.40;74.20;;;;;;5034449;28;20040;-75
2021/05/06 13:17:52;;;;;;;3.17;2.28;;;10.50;74.10;;;;;;5035595;28;20022;-75
2021/05/06 13:20:21;;;;;;;2.50;2.08;;;10.80;73.80;;;;;;5035201;28;20014;-74
2021/05/06 13:23:03;;;;;;;2.25;1.98;;;11.10;73.50;;;;;;5035226;28;20064;-74
2021/05/06 13:26:06;;;;;;;2.67;2.10;;;11.40;73.10;;;;;;5034511;28;20500;-74
2021/05/06 13:28:32;;;;;;;2.85;2.42;;;11.60;72.80;;;;;;4998980;28;20104;-75
2021/05/06 13:31:17;;;;;;;2.92;2.30;;;11.60;72.70;;;;;;5035270;28;20021;-75
2021/05/06 13:33:46;;;;;;;1.95;1.67;;;11.70;73.00;;;;;;5034965;28;20481;-74
2021/05/06 13:36:16;;;;;;;2.53;2.20;;;11.90;72.80;;;;;;5034820;28;20030;-75
2021/05/06 13:39:03;;;;;;;3.50;2.65;;;12.10;72.60;;;;;;5034178;28;20076;-75
2021/05/06 13:41:34;;;;;;;3.63;2.95;;;12.30;72.10;;;;;;5034665;28;20084;-76
2021/05/06 13:44:02;;;;;;;2.58;2.22;;;12.20;72.40;;;;;;5034867;28;20500;-74
2021/05/06 13:46:30;;;;;;;3.42;2.58;;;12.10;72.50;;;;;;5034782;28;20534;-74
2021/05/06 13:48:56;;;;;;;3.40;2.50;;;11.80;73.00;;;;;;5034753;28;20056;-74
2021/05/06 13:51:23;;;;;;;4.25;2.85;;;11.60;73.50;;;;;;5034982;28;20038;-75
2021/05/06 13:53:50;;;;;;;3.17;2.47;;;11.40;73.80;;;;;;5034066;28;20189;-76
2021/05/06 13:56:16;;;;;;;4.55;3.45;;;11.30;74.30;;;;;;5034419;28;20127;-74
2021/05/06 13:58:41;;;;;;;4.45;3.13;;;11.20;74.00;;;;;;5035518;28;20457;-75
2021/05/06 14:01:09;;;;;;;3.85;2.88;;;11.00;74.50;;;;;;5034370;28;20037;-75
2021/05/06 14:03:35;;;;;;;3.53;2.60;;;11.10;74.60;;;;;;5034280;28;20037;-75
2021/05/06 14:06:01;;;;;;;2.33;2.10;;;11.20;74.10;;;;;;5034242;28;20025;-74
2021/05/06 14:08:28;;;;;;;2.83;2.10;;;11.50;73.60;;;;;;5033772;28;20072;-75
2021/05/06 14:10:55;;;;;;;2.10;1.83;;;11.60;73.10;;;;;;5034112;28;20457;-75
2021/05/06 14:13:24;;;;;;;2.38;2.10;;;11.60;72.90;;;;;;5033963;28;20112;-72
2021/05/06 14:15:50;;;;;;;2.28;1.70;;;11.60;73.10;;;;;;5033802;28;20064;-72
2021/05/06 14:18:16;;;;;;;3.10;2.05;;;11.70;73.00;;;;;;5033958;28;20030;-73
2021/05/06 14:20:43;;;;;;;2.13;1.60;;;11.50;72.80;;;;;;5033977;28;20025;-74
2021/05/06 14:23:10;;;;;;;2.17;1.65;;;11.40;73.40;;;;;;5033349;28;20061;-74
2021/05/06 14:25:36;;;;;;;1.98;1.58;;;11.30;73.50;;;;;;5033593;28;20025;-73
2021/05/06 14:28:04;;;;;;;1.30;1.20;;;11.40;73.60;;;;;;5033770;28;20067;-74
2021/05/06 14:30:30;;;;;;;1.65;1.55;;;11.50;73.50;;;;;;5033688;28;20533;-73
2021/05/06 14:32:55;;;;;;;1.75;1.42;;;11.60;73.00;;;;;;5033607;28;20021;-74
2021/05/06 14:35:21;;;;;;;1.95;1.80;;;11.50;73.00;;;;;;5033749;28;20041;-75
2021/05/06 14:37:47;;;;;;;1.52;1.42;;;11.60;73.00;;;;;;5033335;28;20029;-74
2021/05/06 14:40:13;;;;;;;1.42;1.33;;;11.70;73.00;;;;;;5033470;28;20033;-75
2021/05/06 14:42:38;;;;;;;1.33;1.23;;;11.70;72.90;;;;;;5033614;28;20080;-74
2021/05/06 14:45:05;;;;;;;1.20;1.20;;;11.80;72.90;;;;;;5033407;28;20057;-73
2021/05/06 14:47:30;;;;;;;1.50;1.40;;;11.80;72.70;;;;;;5015784;28;20059;-73
2021/05/06 14:49:59;;;;;;;1.40;1.15;;;11.80;72.60;;;;;;5033335;28;20097;-73
2021/05/06 14:52:24;;;;;;;1.92;1.33;;;11.80;72.50;;;;;;5032799;28;20028;-74
2021/05/06 14:54:50;;;;;;;1.70;1.60;;;11.80;72.50;;;;;;5033373;28;20018;-74
2021/05/06 14:57:16;;;;;;;1.48;1.10;;;11.70;72.80;;;;;;5033346;28;20028;-75
2021/05/06 14:59:44;;;;;;;2.00;1.58;;;11.70;72.90;;;;;;5033489;28;20441;-76
2021/05/06 15:02:10;;;;;;;1.92;1.58;;;11.90;72.60;;;;;;5034210;28;20099;-76
2021/05/06 15:04:35;;;;;;;2.08;1.60;;;12.10;72.20;;;;;;5033789;28;20029;-74
2021/05/06 15:07:01;;;;;;;0.95;0.95;;;12.30;71.90;;;;;;5033327;28;20025;-76
2021/05/06 15:09:26;;;;;;;1.95;1.70;;;12.40;71.70;;;;;;5033436;28;20018;-75
2021/05/06 15:11:55;;;;;;;1.45;1.27;;;12.60;71.50;;;;;;5043358;28;20028;-75
2021/05/06 15:14:21;;;;;;;1.60;1.45;;;12.60;71.20;;;;;;5053437;28;20017;-73
2021/05/06 15:16:47;;;;;;;2.15;1.67;;;12.70;71.30;;;;;;5053557;28;20094;-76
2021/05/06 15:19:12;;;;;;;2.10;1.63;;;12.80;71.30;;;;;;5053092;28;20025;-74
2021/05/06 15:21:38;;;;;;;1.90;1.70;;;12.90;71.30;;;;;;5052863;28;20537;-75
2021/05/06 15:24:03;;;;;;;1.83;1.73;;;12.80;71.00;;;;;;5053182;28;20021;-74
2021/05/06 15:26:29;;;;;;;4.50;2.33;;;12.60;71.30;;;;;;5060532;28;20075;-75
2021/05/06 15:28:54;;;;;;;2.47;2.08;;;12.50;71.60;;;;;;5073125;28;20025;-75
2021/05/06 15:31:20;;;;;;;1.73;1.63;;;12.20;72.20;;;;;;5054874;28;20097;-74
2021/05/06 15:33:46;;;;;;;2.35;2.13;;;12.10;72.50;;;;;;5073192;28;20028;-72
2021/05/06 15:36:16;;;;;;;2.97;2.13;;;12.00;72.60;;;;;;5072481;28;20021;-73
2021/05/06 15:38:41;;;;;;;2.15;1.90;;;12.00;72.80;;;;;;5073081;28;20111;-75
2021/05/06 15:41:07;;;;;;;2.65;2.17;;;12.30;72.50;;;;;;5072822;28;20104;-73
2021/05/06 15:43:33;;;;;;;2.00;1.65;;;12.60;71.70;;;;;;5072823;28;20031;-75
2021/05/06 15:45:58;;;;;;;2.65;1.88;;;12.70;71.60;;;;;;5072752;28;20016;-75
2021/05/06 15:48:24;;;;;;;1.98;1.45;;;12.80;71.40;;;;;;5073080;28;20116;-74
2021/05/06 15:50:49;;;;;;;2.10;1.58;;;12.80;71.50;;;;;;5072231;28;20032;-75
2021/05/06 15:53:15;;;;;;;1.33;1.20;;;12.90;71.40;;;;;;5072780;28;20059;-73
2021/05/06 15:55:40;;;;;;;2.00;1.60;;;13.00;71.10;;;;;;5072743;28;20067;-74
2021/05/06 15:58:07;;;;;;;1.45;1.35;;;13.00;70.90;;;;;;5072719;28;20376;-74
2021/05/06 16:00:33;;;;;;;1.98;1.73;;;12.80;71.30;;;;;;5072696;28;20028;-74
2021/05/06 16:03:02;;;;;;;1.85;1.52;;;12.60;71.50;;;;;;5076621;28;20032;-75
2021/05/06 16:05:29;;;;;;;2.00;1.65;;;12.60;71.70;;;;;;5075874;28;20020;-73
2021/05/06 16:07:55;;;;;;;2.38;1.88;;;12.50;71.70;;;;;;5076246;28;20384;-74